Grand Isle, ME

6:13 PM EST on February 10, 2016 (GMT -0500)
N7GLR aprswxnet | | Change Station
CLOSE
Current Station
Personal Weather Station
Location: Grand Isle [Lille], ME
Elevation: 711 ft
Nearby Weather Stations

Elev 711 ft 47.24 °N, 68.10 °W | Updated 3 minutes ago

Overcast
Overcast
19.3 °F
Feels Like 19 °F
N
0.0
Wind Variable Wind from NNE
Gusts 0.0 mph

Today
High -- | Low -- °F
--% Chance of Precip.
Yesterday
High -- | Low -- °F
Precip. -- in
Pressure 29.53 in
Visibility 5.0 miles
Clouds Mostly Cloudy 4100 ft
Overcast 5000 ft
Windchill 19 °F
Dew Point 17 °F
Humidity 90%
Rainfall 0.07 in
Snow Depth Not available.
6:46 AM 4:47 PM
Waxing Crescent, 8% visible
METAR KFVE 102253Z AUTO 09003KT 5SM -SN BR BKN041 OVC050 M08/M10 A2948 RMK AO2 SNB21 SLP999 P0000 T10781100
Pressure 29.53 in
Visibility 5.0 miles
Clouds Mostly Cloudy 4100 ft
Overcast 5000 ft
Windchill 19 °F
Dew Point 17 °F
Humidity 90%
Rainfall 0.07 in
Snow Depth Not available.
6:46 AM 4:47 PM
Waxing Crescent, 8% visible
METAR KFVE 102253Z AUTO 09003KT 5SM -SN BR BKN041 OVC050 M08/M10 A2948 RMK AO2 SNB21 SLP999 P0000 T10781100

10-Day Weather Forecast

Almanac

Astronomy

Feb. 10, 2016 Rise Set
Actual Time
Civil Twilight
Nautical Twilight
Astronomical Twilight
Moon
Length of Visible Light
Length of Day
Tomorrow will be .
, % of the Moon is Illuminated

Today's Extremes

State Highs State Lows

Community

WunderPhotos

Upload Photos

1,891,933 photos uploaded!

WunderBlog® & News

Nearby

Air Quality

  Air Quality AQ Index Pollutant
Not available.

Snow Depth

Station Depth Elevation

Earthquake Activity

City Distance Mag. Time & Date
Minimum magnitude displayed is 2.5.

Coastal Water Temperatures

Place Temperature

Stations

Nearby Weather Stations

Station Location Temp. Windchill Dew Point Humidity Wind Precip. Elev Updated Type
                   

Watches & Warnings

There are currently no watches in effect.